sensor_id;sensor_type;location;lat;lon;timestamp;P1;durP1;ratioP1;P2;durP2;ratioP2
78027;SDS011;67235;45.638;11.714;2023-05-07T00:00:18;11.13;;;7.10;;
78027;SDS011;67235;45.638;11.714;2023-05-07T00:02:44;13.37;;;7.10;;
78027;SDS011;67235;45.638;11.714;2023-05-07T00:05:11;13.32;;;7.68;;
78027;SDS011;67235;45.638;11.714;2023-05-07T00:07:36;14.13;;;7.93;;
78027;SDS011;67235;45.638;11.714;2023-05-07T00:10:03;13.63;;;8.48;;
78027;SDS011;67235;45.638;11.714;2023-05-07T00:12:31;15.60;;;8.97;;
78027;SDS011;67235;45.638;11.714;2023-05-07T00:14:58;13.30;;;8.18;;
78027;SDS011;67235;45.638;11.714;2023-05-07T00:17:28;12.95;;;8.82;;
78027;SDS011;67235;45.638;11.714;2023-05-07T00:19:55;13.43;;;8.32;;
78027;SDS011;67235;45.638;11.714;2023-05-07T00:22:21;14.07;;;8.50;;
78027;SDS011;67235;45.638;11.714;2023-05-07T00:24:46;14.10;;;9.15;;
78027;SDS011;67235;45.638;11.714;2023-05-07T00:27:12;16.05;;;9.38;;
78027;SDS011;67235;45.638;11.714;2023-05-07T00:29:38;14.97;;;9.20;;
78027;SDS011;67235;45.638;11.714;2023-05-07T00:32:04;13.65;;;8.32;;
78027;SDS011;67235;45.638;11.714;2023-05-07T00:34:30;15.07;;;9.00;;
78027;SDS011;67235;45.638;11.714;2023-05-07T00:36:56;17.70;;;10.50;;
78027;SDS011;67235;45.638;11.714;2023-05-07T00:39:22;13.52;;;8.93;;
78027;SDS011;67235;45.638;11.714;2023-05-07T00:41:47;12.30;;;8.00;;
78027;SDS011;67235;45.638;11.714;2023-05-07T00:44:13;14.88;;;7.63;;
78027;SDS011;67235;45.638;11.714;2023-05-07T00:46:39;15.57;;;8.68;;
78027;SDS011;67235;45.638;11.714;2023-05-07T00:49:06;13.73;;;8.20;;
78027;SDS011;67235;45.638;11.714;2023-05-07T00:51:32;16.38;;;9.80;;
78027;SDS011;67235;45.638;11.714;2023-05-07T00:53:59;18.75;;;11.13;;
78027;SDS011;67235;45.638;11.714;2023-05-07T00:56:27;17.80;;;11.77;;
78027;SDS011;67235;45.638;11.714;2023-05-07T00:58:53;18.98;;;11.77;;
78027;SDS011;67235;45.638;11.714;2023-05-07T01:01:20;18.30;;;11.33;;
78027;SDS011;67235;45.638;11.714;2023-05-07T01:03:46;17.90;;;9.50;;
78027;SDS011;67235;45.638;11.714;2023-05-07T01:09:16;17.80;;;9.65;;
78027;SDS011;67235;45.638;11.714;2023-05-07T01:11:49;19.25;;;11.55;;
78027;SDS011;67235;45.638;11.714;2023-05-07T01:14:28;18.63;;;10.20;;
78027;SDS011;67235;45.638;11.714;2023-05-07T01:17:18;18.90;;;10.27;;
78027;SDS011;67235;45.638;11.714;2023-05-07T01:19:56;16.25;;;9.60;;
78027;SDS011;67235;45.638;11.714;2023-05-07T01:25:27;20.00;;;10.35;;
78027;SDS011;67235;45.638;11.714;2023-05-07T01:27:59;20.43;;;8.83;;
78027;SDS011;67235;45.638;11.714;2023-05-07T01:30:32;17.55;;;9.82;;
78027;SDS011;67235;45.638;11.714;2023-05-07T01:33:14;22.92;;;12.05;;
78027;SDS011;67235;45.638;11.714;2023-05-07T01:36:02;21.30;;;11.52;;
78027;SDS011;67235;45.638;11.714;2023-05-07T01:38:51;23.60;;;10.77;;
78027;SDS011;67235;45.638;11.714;2023-05-07T01:41:24;18.37;;;9.50;;
78027;SDS011;67235;45.638;11.714;2023-05-07T01:43:52;19.58;;;10.73;;
78027;SDS011;67235;45.638;11.714;2023-05-07T01:46:30;20.00;;;11.65;;
78027;SDS011;67235;45.638;11.714;2023-05-07T01:49:16;20.23;;;11.75;;
78027;SDS011;67235;45.638;11.714;2023-05-07T01:51:46;16.60;;;10.63;;
78027;SDS011;67235;45.638;11.714;2023-05-07T01:54:18;15.37;;;10.17;;
78027;SDS011;67235;45.638;11.714;2023-05-07T01:56:58;19.05;;;11.93;;
78027;SDS011;67235;45.638;11.714;2023-05-07T01:59:34;18.55;;;10.68;;
78027;SDS011;67235;45.638;11.714;2023-05-07T02:02:21;17.90;;;10.77;;
78027;SDS011;67235;45.638;11.714;2023-05-07T02:04:50;19.15;;;10.98;;
78027;SDS011;67235;45.638;11.714;2023-05-07T02:07:47;16.47;;;9.80;;
78027;SDS011;67235;45.638;11.714;2023-05-07T02:10:21;15.68;;;9.65;;
78027;SDS011;67235;45.638;11.714;2023-05-07T02:13:12;15.07;;;9.60;;
78027;SDS011;67235;45.638;11.714;2023-05-07T02:15:59;15.45;;;9.50;;
78027;SDS011;67235;45.638;11.714;2023-05-07T02:18:30;12.15;;;8.18;;
78027;SDS011;67235;45.638;11.714;2023-05-07T02:21:17;13.10;;;7.67;;
78027;SDS011;67235;45.638;11.714;2023-05-07T02:24:10;9.70;;;6.30;;
78027;SDS011;67235;45.638;11.714;2023-05-07T02:26:40;13.20;;;8.30;;
78027;SDS011;67235;45.638;11.714;2023-05-07T02:29:12;13.32;;;8.65;;
78027;SDS011;67235;45.638;11.714;2023-05-07T02:31:37;13.83;;;8.50;;
78027;SDS011;67235;45.638;11.714;2023-05-07T02:34:09;14.65;;;9.05;;
78027;SDS011;67235;45.638;11.714;2023-05-07T02:36:38;15.43;;;9.50;;
78027;SDS011;67235;45.638;11.714;2023-05-07T02:39:14;17.13;;;10.02;;
78027;SDS011;67235;45.638;11.714;2023-05-07T02:41:59;19.02;;;10.23;;
78027;SDS011;67235;45.638;11.714;2023-05-07T02:44:32;16.30;;;10.33;;
78027;SDS011;67235;45.638;11.714;2023-05-07T02:47:06;16.02;;;9.38;;
78027;SDS011;67235;45.638;11.714;2023-05-07T02:49:38;15.80;;;9.82;;
78027;SDS011;67235;45.638;11.714;2023-05-07T02:52:28;19.55;;;11.07;;
78027;SDS011;67235;45.638;11.714;2023-05-07T02:55:00;20.85;;;12.18;;
78027;SDS011;67235;45.638;11.714;2023-05-07T02:57:31;22.63;;;12.57;;
78027;SDS011;67235;45.638;11.714;2023-05-07T03:00:12;19.50;;;12.00;;
78027;SDS011;67235;45.638;11.714;2023-05-07T03:02:45;20.38;;;12.68;;
78027;SDS011;67235;45.638;11.714;2023-05-07T03:05:27;19.52;;;12.73;;
78027;SDS011;67235;45.638;11.714;2023-05-07T03:08:02;22.58;;;12.65;;
78027;SDS011;67235;45.638;11.714;2023-05-07T03:10:29;20.43;;;12.03;;
78027;SDS011;67235;45.638;11.714;2023-05-07T03:13:16;19.40;;;11.50;;
78027;SDS011;67235;45.638;11.714;2023-05-07T03:15:47;21.55;;;11.88;;
78027;SDS011;67235;45.638;11.714;2023-05-07T03:18:15;21.40;;;13.23;;
78027;SDS011;67235;45.638;11.714;2023-05-07T03:20:40;19.07;;;11.07;;
78027;SDS011;67235;45.638;11.714;2023-05-07T03:23:14;18.25;;;11.80;;
78027;SDS011;67235;45.638;11.714;2023-05-07T03:25:45;17.70;;;10.57;;
78027;SDS011;67235;45.638;11.714;2023-05-07T03:28:11;21.20;;;11.73;;
78027;SDS011;67235;45.638;11.714;2023-05-07T03:30:38;20.02;;;10.10;;
78027;SDS011;67235;45.638;11.714;2023-05-07T03:33:07;19.97;;;10.43;;
78027;SDS011;67235;45.638;11.714;2023-05-07T03:35:34;18.63;;;10.98;;
78027;SDS011;67235;45.638;11.714;2023-05-07T03:38:08;20.42;;;12.48;;
78027;SDS011;67235;45.638;11.714;2023-05-07T03:40:35;21.05;;;12.00;;
78027;SDS011;67235;45.638;11.714;2023-05-07T03:43:02;21.25;;;11.55;;
78027;SDS011;67235;45.638;11.714;2023-05-07T03:45:29;20.17;;;12.40;;
78027;SDS011;67235;45.638;11.714;2023-05-07T03:47:57;18.50;;;11.30;;
78027;SDS011;67235;45.638;11.714;2023-05-07T03:50:26;19.15;;;12.00;;
78027;SDS011;67235;45.638;11.714;2023-05-07T03:52:56;17.20;;;11.05;;
78027;SDS011;67235;45.638;11.714;2023-05-07T03:55:34;19.70;;;12.35;;
78027;SDS011;67235;45.638;11.714;2023-05-07T03:58:02;20.13;;;11.57;;
78027;SDS011;67235;45.638;11.714;2023-05-07T04:00:30;17.58;;;10.60;;
78027;SDS011;67235;45.638;11.714;2023-05-07T04:03:12;16.85;;;10.70;;
78027;SDS011;67235;45.638;11.714;2023-05-07T04:05:39;17.05;;;10.50;;
78027;SDS011;67235;45.638;11.714;2023-05-07T04:08:09;17.08;;;10.68;;
78027;SDS011;67235;45.638;11.714;2023-05-07T04:10:37;17.63;;;10.27;;
78027;SDS011;67235;45.638;11.714;2023-05-07T04:13:08;19.27;;;11.65;;
78027;SDS011;67235;45.638;11.714;2023-05-07T04:15:37;21.42;;;12.40;;
78027;SDS011;67235;45.638;11.714;2023-05-07T04:18:05;20.38;;;12.27;;
78027;SDS011;67235;45.638;11.714;2023-05-07T04:20:33;24.00;;;12.25;;
78027;SDS011;67235;45.638;11.714;2023-05-07T04:23:01;23.73;;;13.93;;
78027;SDS011;67235;45.638;11.714;2023-05-07T04:25:37;19.95;;;12.65;;
78027;SDS011;67235;45.638;11.714;2023-05-07T04:28:03;19.38;;;11.82;;
78027;SDS011;67235;45.638;11.714;2023-05-07T04:30:34;17.42;;;10.88;;
78027;SDS011;67235;45.638;11.714;2023-05-07T04:33:07;16.02;;;10.30;;
78027;SDS011;67235;45.638;11.714;2023-05-07T04:35:42;18.70;;;10.50;;
78027;SDS011;67235;45.638;11.714;2023-05-07T04:38:19;17.02;;;10.50;;
78027;SDS011;67235;45.638;11.714;2023-05-07T04:41:08;19.65;;;10.70;;
78027;SDS011;67235;45.638;11.714;2023-05-07T04:43:43;18.63;;;12.18;;
78027;SDS011;67235;45.638;11.714;2023-05-07T04:46:10;18.90;;;11.65;;
78027;SDS011;67235;45.638;11.714;2023-05-07T04:48:52;17.47;;;10.57;;
78027;SDS011;67235;45.638;11.714;2023-05-07T04:51:20;20.55;;;10.70;;
78027;SDS011;67235;45.638;11.714;2023-05-07T04:53:46;19.23;;;11.73;;
78027;SDS011;67235;45.638;11.714;2023-05-07T04:56:13;16.63;;;10.15;;
78027;SDS011;67235;45.638;11.714;2023-05-07T04:59:12;16.02;;;9.70;;
78027;SDS011;67235;45.638;11.714;2023-05-07T05:01:47;15.00;;;8.77;;
78027;SDS011;67235;45.638;11.714;2023-05-07T05:04:13;12.63;;;8.40;;
78027;SDS011;67235;45.638;11.714;2023-05-07T05:06:42;14.25;;;8.88;;
78027;SDS011;67235;45.638;11.714;2023-05-07T05:09:30;14.77;;;9.10;;
78027;SDS011;67235;45.638;11.714;2023-05-07T05:11:56;17.42;;;9.25;;
78027;SDS011;67235;45.638;11.714;2023-05-07T05:14:28;15.18;;;9.50;;
78027;SDS011;67235;45.638;11.714;2023-05-07T05:16:55;14.45;;;9.52;;
78027;SDS011;67235;45.638;11.714;2023-05-07T05:19:29;16.92;;;10.02;;
78027;SDS011;67235;45.638;11.714;2023-05-07T05:22:04;16.73;;;10.63;;
78027;SDS011;67235;45.638;11.714;2023-05-07T05:24:37;19.77;;;12.13;;
78027;SDS011;67235;45.638;11.714;2023-05-07T05:27:06;16.70;;;11.23;;
78027;SDS011;67235;45.638;11.714;2023-05-07T05:29:37;16.63;;;9.93;;
78027;SDS011;67235;45.638;11.714;2023-05-07T05:32:04;17.05;;;11.80;;
78027;SDS011;67235;45.638;11.714;2023-05-07T05:34:44;17.58;;;11.82;;
78027;SDS011;67235;45.638;11.714;2023-05-07T05:37:11;20.63;;;11.55;;
78027;SDS011;67235;45.638;11.714;2023-05-07T05:42:27;22.15;;;12.43;;
78027;SDS011;67235;45.638;11.714;2023-05-07T05:44:59;15.55;;;10.35;;
78027;SDS011;67235;45.638;11.714;2023-05-07T05:47:26;15.15;;;11.20;;
78027;SDS011;67235;45.638;11.714;2023-05-07T05:49:53;14.55;;;10.38;;
78027;SDS011;67235;45.638;11.714;2023-05-07T05:52:18;16.25;;;10.23;;
78027;SDS011;67235;45.638;11.714;2023-05-07T05:54:44;14.60;;;10.60;;
78027;SDS011;67235;45.638;11.714;2023-05-07T05:57:10;15.32;;;10.57;;
78027;SDS011;67235;45.638;11.714;2023-05-07T05:59:52;14.88;;;10.90;;
78027;SDS011;67235;45.638;11.714;2023-05-07T06:02:34;13.85;;;10.00;;
78027;SDS011;67235;45.638;11.714;2023-05-07T06:07:38;14.25;;;9.82;;
78027;SDS011;67235;45.638;11.714;2023-05-07T06:10:26;13.93;;;9.52;;
78027;SDS011;67235;45.638;11.714;2023-05-07T06:13:09;14.00;;;9.80;;
78027;SDS011;67235;45.638;11.714;2023-05-07T06:15:41;16.90;;;10.15;;
78027;SDS011;67235;45.638;11.714;2023-05-07T06:18:24;12.23;;;9.23;;
78027;SDS011;67235;45.638;11.714;2023-05-07T06:21:21;13.95;;;9.50;;
78027;SDS011;67235;45.638;11.714;2023-05-07T06:23:47;11.45;;;8.90;;
78027;SDS011;67235;45.638;11.714;2023-05-07T06:26:30;12.75;;;8.32;;
78027;SDS011;67235;45.638;11.714;2023-05-07T06:28:58;13.40;;;8.55;;
78027;SDS011;67235;45.638;11.714;2023-05-07T06:31:28;11.37;;;8.10;;
78027;SDS011;67235;45.638;11.714;2023-05-07T06:34:10;12.45;;;8.18;;
78027;SDS011;67235;45.638;11.714;2023-05-07T06:36:39;13.30;;;8.10;;
78027;SDS011;67235;45.638;11.714;2023-05-07T06:39:07;10.70;;;8.13;;
78027;SDS011;67235;45.638;11.714;2023-05-07T06:41:46;14.00;;;8.53;;
78027;SDS011;67235;45.638;11.714;2023-05-07T06:44:25;12.43;;;8.50;;
78027;SDS011;67235;45.638;11.714;2023-05-07T06:46:53;11.35;;;8.10;;
78027;SDS011;67235;45.638;11.714;2023-05-07T06:49:40;12.05;;;8.73;;
78027;SDS011;67235;45.638;11.714;2023-05-07T06:52:12;10.25;;;7.43;;
78027;SDS011;67235;45.638;11.714;2023-05-07T06:54:38;9.93;;;7.20;;
78027;SDS011;67235;45.638;11.714;2023-05-07T06:57:06;10.27;;;7.43;;
78027;SDS011;67235;45.638;11.714;2023-05-07T06:59:37;10.35;;;7.43;;
78027;SDS011;67235;45.638;11.714;2023-05-07T07:02:07;10.32;;;7.55;;
78027;SDS011;67235;45.638;11.714;2023-05-07T07:04:40;10.43;;;6.90;;
78027;SDS011;67235;45.638;11.714;2023-05-07T07:07:15;11.90;;;7.57;;
78027;SDS011;67235;45.638;11.714;2023-05-07T07:12:39;11.38;;;7.50;;
78027;SDS011;67235;45.638;11.714;2023-05-07T07:15:10;8.88;;;7.30;;
78027;SDS011;67235;45.638;11.714;2023-05-07T07:17:41;9.70;;;7.75;;
78027;SDS011;67235;45.638;11.714;2023-05-07T07:20:12;10.30;;;7.07;;
78027;SDS011;67235;45.638;11.714;2023-05-07T07:22:42;10.10;;;7.53;;
78027;SDS011;67235;45.638;11.714;2023-05-07T07:25:13;9.40;;;7.32;;
78027;SDS011;67235;45.638;11.714;2023-05-07T07:27:39;12.80;;;7.82;;
78027;SDS011;67235;45.638;11.714;2023-05-07T07:30:05;10.73;;;7.33;;
78027;SDS011;67235;45.638;11.714;2023-05-07T07:32:56;11.40;;;7.22;;
78027;SDS011;67235;45.638;11.714;2023-05-07T07:35:30;10.80;;;7.60;;
78027;SDS011;67235;45.638;11.714;2023-05-07T07:38:06;9.57;;;6.63;;
78027;SDS011;67235;45.638;11.714;2023-05-07T07:40:36;9.60;;;6.85;;
78027;SDS011;67235;45.638;11.714;2023-05-07T07:43:14;10.07;;;6.57;;
78027;SDS011;67235;45.638;11.714;2023-05-07T07:45:45;9.88;;;6.43;;
78027;SDS011;67235;45.638;11.714;2023-05-07T07:48:12;8.48;;;5.95;;
78027;SDS011;67235;45.638;11.714;2023-05-07T07:50:38;8.88;;;5.93;;
78027;SDS011;67235;45.638;11.714;2023-05-07T07:53:04;8.73;;;5.80;;
78027;SDS011;67235;45.638;11.714;2023-05-07T07:55:41;7.80;;;5.72;;
78027;SDS011;67235;45.638;11.714;2023-05-07T07:58:11;10.68;;;6.53;;
78027;SDS011;67235;45.638;11.714;2023-05-07T08:00:37;11.43;;;6.80;;
78027;SDS011;67235;45.638;11.714;2023-05-07T08:03:04;8.60;;;6.30;;
78027;SDS011;67235;45.638;11.714;2023-05-07T08:05:34;10.40;;;6.25;;
78027;SDS011;67235;45.638;11.714;2023-05-07T08:08:08;9.15;;;6.25;;
78027;SDS011;67235;45.638;11.714;2023-05-07T08:10:34;8.63;;;6.28;;
78027;SDS011;67235;45.638;11.714;2023-05-07T08:13:04;7.72;;;5.88;;
78027;SDS011;67235;45.638;11.714;2023-05-07T08:15:38;9.30;;;6.83;;
78027;SDS011;67235;45.638;11.714;2023-05-07T08:18:04;9.55;;;7.03;;
78027;SDS011;67235;45.638;11.714;2023-05-07T08:20:30;10.00;;;7.35;;
78027;SDS011;67235;45.638;11.714;2023-05-07T08:23:15;9.38;;;6.75;;
78027;SDS011;67235;45.638;11.714;2023-05-07T08:26:12;9.73;;;6.73;;
78027;SDS011;67235;45.638;11.714;2023-05-07T08:28:44;9.40;;;6.70;;
78027;SDS011;67235;45.638;11.714;2023-05-07T08:31:11;9.98;;;7.40;;
78027;SDS011;67235;45.638;11.714;2023-05-07T08:34:07;10.85;;;7.25;;
78027;SDS011;67235;45.638;11.714;2023-05-07T08:36:40;10.63;;;7.57;;
78027;SDS011;67235;45.638;11.714;2023-05-07T08:39:12;10.63;;;6.83;;
78027;SDS011;67235;45.638;11.714;2023-05-07T08:41:46;11.63;;;7.45;;
78027;SDS011;67235;45.638;11.714;2023-05-07T08:44:23;10.25;;;7.10;;
78027;SDS011;67235;45.638;11.714;2023-05-07T08:47:07;9.65;;;7.03;;
78027;SDS011;67235;45.638;11.714;2023-05-07T08:57:40;10.82;;;6.93;;
78027;SDS011;67235;45.638;11.714;2023-05-07T09:00:06;9.35;;;6.53;;
78027;SDS011;67235;45.638;11.714;2023-05-07T09:02:42;10.70;;;7.23;;
78027;SDS011;67235;45.638;11.714;2023-05-07T09:05:36;10.45;;;6.95;;
78027;SDS011;67235;45.638;11.714;2023-05-07T09:08:14;11.32;;;8.13;;
78027;SDS011;67235;45.638;11.714;2023-05-07T09:10:47;10.63;;;7.47;;
78027;SDS011;67235;45.638;11.714;2023-05-07T09:13:19;10.23;;;7.13;;
78027;SDS011;67235;45.638;11.714;2023-05-07T09:15:55;11.53;;;7.90;;
78027;SDS011;67235;45.638;11.714;2023-05-07T09:18:24;12.63;;;8.05;;
78027;SDS011;67235;45.638;11.714;2023-05-07T09:20:52;11.52;;;7.70;;
78027;SDS011;67235;45.638;11.714;2023-05-07T09:29:15;10.70;;;7.17;;
78027;SDS011;67235;45.638;11.714;2023-05-07T09:34:41;11.13;;;6.95;;
78027;SDS011;67235;45.638;11.714;2023-05-07T09:37:08;9.63;;;7.03;;
78027;SDS011;67235;45.638;11.714;2023-05-07T09:39:41;11.35;;;7.70;;
78027;SDS011;67235;45.638;11.714;2023-05-07T09:42:15;10.30;;;7.50;;
78027;SDS011;67235;45.638;11.714;2023-05-07T09:45:04;10.95;;;7.88;;
78027;SDS011;67235;45.638;11.714;2023-05-07T09:47:35;11.77;;;7.80;;
78027;SDS011;67235;45.638;11.714;2023-05-07T09:50:05;9.77;;;6.88;;
78027;SDS011;67235;45.638;11.714;2023-05-07T09:52:36;10.35;;;7.40;;
78027;SDS011;67235;45.638;11.714;2023-05-07T09:55:17;9.77;;;7.00;;
78027;SDS011;67235;45.638;11.714;2023-05-07T09:57:56;9.32;;;6.55;;
78027;SDS011;67235;45.638;11.714;2023-05-07T10:00:31;9.65;;;6.75;;
78027;SDS011;67235;45.638;11.714;2023-05-07T10:03:05;12.32;;;6.38;;
78027;SDS011;67235;45.638;11.714;2023-05-07T10:05:35;9.23;;;6.40;;
78027;SDS011;67235;45.638;11.714;2023-05-07T10:08:06;10.23;;;7.20;;
78027;SDS011;67235;45.638;11.714;2023-05-07T10:10:33;9.88;;;6.28;;
78027;SDS011;67235;45.638;11.714;2023-05-07T10:13:01;9.85;;;6.28;;
78027;SDS011;67235;45.638;11.714;2023-05-07T10:15:35;9.75;;;6.32;;
78027;SDS011;67235;45.638;11.714;2023-05-07T10:18:05;10.15;;;6.60;;
78027;SDS011;67235;45.638;11.714;2023-05-07T10:20:33;8.40;;;5.83;;
78027;SDS011;67235;45.638;11.714;2023-05-07T10:23:01;8.77;;;5.95;;
78027;SDS011;67235;45.638;11.714;2023-05-07T10:25:30;8.80;;;6.18;;
78027;SDS011;67235;45.638;11.714;2023-05-07T10:27:59;15.23;;;6.30;;
78027;SDS011;67235;45.638;11.714;2023-05-07T10:30:36;8.98;;;5.85;;
78027;SDS011;67235;45.638;11.714;2023-05-07T10:33:26;10.30;;;6.40;;
78027;SDS011;67235;45.638;11.714;2023-05-07T10:35:57;9.32;;;5.97;;
78027;SDS011;67235;45.638;11.714;2023-05-07T10:38:25;8.15;;;5.93;;
78027;SDS011;67235;45.638;11.714;2023-05-07T10:40:53;8.48;;;6.03;;
78027;SDS011;67235;45.638;11.714;2023-05-07T10:43:19;9.13;;;6.47;;
78027;SDS011;67235;45.638;11.714;2023-05-07T10:46:08;8.37;;;5.83;;
78027;SDS011;67235;45.638;11.714;2023-05-07T10:51:34;10.05;;;6.28;;
78027;SDS011;67235;45.638;11.714;2023-05-07T10:56:36;10.25;;;6.72;;
78027;SDS011;67235;45.638;11.714;2023-05-07T11:04:22;12.18;;;8.80;;
78027;SDS011;67235;45.638;11.714;2023-05-07T11:07:09;11.40;;;8.45;;
78027;SDS011;67235;45.638;11.714;2023-05-07T11:15:02;12.35;;;7.82;;
78027;SDS011;67235;45.638;11.714;2023-05-07T11:17:28;11.93;;;8.05;;
78027;SDS011;67235;45.638;11.714;2023-05-07T11:19:57;11.80;;;8.60;;
78027;SDS011;67235;45.638;11.714;2023-05-07T11:25:03;12.87;;;9.07;;
78027;SDS011;67235;45.638;11.714;2023-05-07T11:27:31;11.75;;;8.52;;
78027;SDS011;67235;45.638;11.714;2023-05-07T11:29:57;12.25;;;9.50;;
78027;SDS011;67235;45.638;11.714;2023-05-07T11:32:27;14.93;;;10.07;;
78027;SDS011;67235;45.638;11.714;2023-05-07T11:34:54;13.68;;;8.27;;
78027;SDS011;67235;45.638;11.714;2023-05-07T11:37:21;11.93;;;9.20;;
78027;SDS011;67235;45.638;11.714;2023-05-07T11:39:48;13.23;;;8.88;;
78027;SDS011;67235;45.638;11.714;2023-05-07T11:42:29;14.43;;;10.30;;
78027;SDS011;67235;45.638;11.714;2023-05-07T11:44:56;15.07;;;11.15;;
78027;SDS011;67235;45.638;11.714;2023-05-07T11:47:23;14.18;;;10.13;;
78027;SDS011;67235;45.638;11.714;2023-05-07T11:49:53;11.67;;;9.30;;
78027;SDS011;67235;45.638;11.714;2023-05-07T11:52:21;14.50;;;9.73;;
78027;SDS011;67235;45.638;11.714;2023-05-07T11:54:51;12.35;;;9.77;;
78027;SDS011;67235;45.638;11.714;2023-05-07T11:57:18;11.45;;;8.48;;
78027;SDS011;67235;45.638;11.714;2023-05-07T11:59:44;14.13;;;9.35;;
78027;SDS011;67235;45.638;11.714;2023-05-07T12:02:10;13.17;;;9.20;;
78027;SDS011;67235;45.638;11.714;2023-05-07T12:04:36;13.50;;;10.05;;
78027;SDS011;67235;45.638;11.714;2023-05-07T12:07:03;14.50;;;10.32;;
78027;SDS011;67235;45.638;11.714;2023-05-07T12:09:29;14.03;;;10.80;;
78027;SDS011;67235;45.638;11.714;2023-05-07T12:11:57;13.90;;;10.57;;
78027;SDS011;67235;45.638;11.714;2023-05-07T12:14:31;16.77;;;11.90;;
78027;SDS011;67235;45.638;11.714;2023-05-07T12:16:57;15.07;;;10.63;;
78027;SDS011;67235;45.638;11.714;2023-05-07T12:19:28;13.32;;;10.00;;
78027;SDS011;67235;45.638;11.714;2023-05-07T12:21:55;15.17;;;10.23;;
78027;SDS011;67235;45.638;11.714;2023-05-07T12:24:22;14.32;;;10.43;;
78027;SDS011;67235;45.638;11.714;2023-05-07T12:26:48;15.18;;;10.68;;
78027;SDS011;67235;45.638;11.714;2023-05-07T12:29:14;14.82;;;11.05;;
78027;SDS011;67235;45.638;11.714;2023-05-07T12:31:41;14.73;;;11.10;;
78027;SDS011;67235;45.638;11.714;2023-05-07T12:34:07;15.40;;;10.98;;
78027;SDS011;67235;45.638;11.714;2023-05-07T12:36:39;14.02;;;10.70;;
78027;SDS011;67235;45.638;11.714;2023-05-07T12:39:06;14.90;;;10.80;;
78027;SDS011;67235;45.638;11.714;2023-05-07T12:41:54;13.63;;;10.32;;
78027;SDS011;67235;45.638;11.714;2023-05-07T12:44:25;14.50;;;10.27;;
78027;SDS011;67235;45.638;11.714;2023-05-07T12:46:55;15.23;;;10.57;;
78027;SDS011;67235;45.638;11.714;2023-05-07T12:49:21;15.05;;;11.07;;
78027;SDS011;67235;45.638;11.714;2023-05-07T12:51:47;14.40;;;10.98;;
78027;SDS011;67235;45.638;11.714;2023-05-07T12:54:30;13.13;;;9.95;;
78027;SDS011;67235;45.638;11.714;2023-05-07T12:57:07;12.83;;;8.80;;
78027;SDS011;67235;45.638;11.714;2023-05-07T12:59:34;11.65;;;8.63;;
78027;SDS011;67235;45.638;11.714;2023-05-07T13:02:05;13.13;;;9.02;;
78027;SDS011;67235;45.638;11.714;2023-05-07T13:04:32;13.25;;;10.23;;
78027;SDS011;67235;45.638;11.714;2023-05-07T13:06:58;16.17;;;11.02;;
78027;SDS011;67235;45.638;11.714;2023-05-07T13:09:25;14.50;;;10.37;;
78027;SDS011;67235;45.638;11.714;2023-05-07T13:11:51;15.02;;;10.85;;
78027;SDS011;67235;45.638;11.714;2023-05-07T13:14:16;15.02;;;11.05;;
78027;SDS011;67235;45.638;11.714;2023-05-07T13:16:43;16.80;;;11.98;;
78027;SDS011;67235;45.638;11.714;2023-05-07T13:19:09;13.40;;;9.07;;
78027;SDS011;67235;45.638;11.714;2023-05-07T13:21:35;13.38;;;9.25;;
78027;SDS011;67235;45.638;11.714;2023-05-07T13:24:01;11.87;;;8.43;;
78027;SDS011;67235;45.638;11.714;2023-05-07T13:26:26;14.77;;;10.57;;
78027;SDS011;67235;45.638;11.714;2023-05-07T13:28:53;13.73;;;10.27;;
78027;SDS011;67235;45.638;11.714;2023-05-07T13:31:19;12.18;;;8.98;;
78027;SDS011;67235;45.638;11.714;2023-05-07T13:33:46;13.63;;;9.90;;
78027;SDS011;67235;45.638;11.714;2023-05-07T13:36:12;13.80;;;9.65;;
78027;SDS011;67235;45.638;11.714;2023-05-07T13:38:38;13.00;;;9.15;;
78027;SDS011;67235;45.638;11.714;2023-05-07T13:41:05;12.07;;;8.52;;
78027;SDS011;67235;45.638;11.714;2023-05-07T13:43:30;14.10;;;9.30;;
78027;SDS011;67235;45.638;11.714;2023-05-07T13:45:58;13.60;;;9.02;;
78027;SDS011;67235;45.638;11.714;2023-05-07T13:48:25;12.85;;;8.55;;
78027;SDS011;67235;45.638;11.714;2023-05-07T13:50:51;11.63;;;7.80;;
78027;SDS011;67235;45.638;11.714;2023-05-07T13:53:17;12.55;;;8.40;;
78027;SDS011;67235;45.638;11.714;2023-05-07T13:55:43;12.63;;;8.05;;
78027;SDS011;67235;45.638;11.714;2023-05-07T13:58:10;11.75;;;8.18;;
78027;SDS011;67235;45.638;11.714;2023-05-07T14:00:36;12.73;;;8.30;;
78027;SDS011;67235;45.638;11.714;2023-05-07T14:03:03;11.35;;;8.05;;
78027;SDS011;67235;45.638;11.714;2023-05-07T14:05:30;12.98;;;9.15;;
78027;SDS011;67235;45.638;11.714;2023-05-07T14:07:56;13.65;;;9.75;;
78027;SDS011;67235;45.638;11.714;2023-05-07T14:10:23;14.37;;;10.27;;
78027;SDS011;67235;45.638;11.714;2023-05-07T14:12:49;13.85;;;9.10;;
78027;SDS011;67235;45.638;11.714;2023-05-07T14:15:15;14.65;;;8.80;;
78027;SDS011;67235;45.638;11.714;2023-05-07T14:17:41;14.63;;;9.15;;
78027;SDS011;67235;45.638;11.714;2023-05-07T14:20:08;14.90;;;9.80;;
78027;SDS011;67235;45.638;11.714;2023-05-07T14:22:35;11.95;;;8.52;;
78027;SDS011;67235;45.638;11.714;2023-05-07T14:25:01;13.70;;;9.50;;
78027;SDS011;67235;45.638;11.714;2023-05-07T14:27:27;12.98;;;9.27;;
78027;SDS011;67235;45.638;11.714;2023-05-07T14:29:53;12.53;;;9.07;;
78027;SDS011;67235;45.638;11.714;2023-05-07T14:32:19;12.43;;;8.57;;
78027;SDS011;67235;45.638;11.714;2023-05-07T14:34:46;11.82;;;8.10;;
78027;SDS011;67235;45.638;11.714;2023-05-07T14:37:13;12.40;;;8.27;;
78027;SDS011;67235;45.638;11.714;2023-05-07T14:39:39;12.93;;;8.55;;
78027;SDS011;67235;45.638;11.714;2023-05-07T14:42:05;12.07;;;8.03;;
78027;SDS011;67235;45.638;11.714;2023-05-07T14:44:32;12.75;;;8.60;;
78027;SDS011;67235;45.638;11.714;2023-05-07T14:46:59;11.20;;;8.15;;
78027;SDS011;67235;45.638;11.714;2023-05-07T14:49:25;12.02;;;8.20;;
78027;SDS011;67235;45.638;11.714;2023-05-07T14:51:51;13.50;;;8.87;;
78027;SDS011;67235;45.638;11.714;2023-05-07T14:54:17;11.25;;;7.97;;
78027;SDS011;67235;45.638;11.714;2023-05-07T14:56:43;12.03;;;8.13;;
78027;SDS011;67235;45.638;11.714;2023-05-07T14:59:08;12.10;;;7.72;;
78027;SDS011;67235;45.638;11.714;2023-05-07T15:01:36;11.73;;;8.30;;
78027;SDS011;67235;45.638;11.714;2023-05-07T15:04:03;11.70;;;8.57;;
78027;SDS011;67235;45.638;11.714;2023-05-07T15:06:29;11.97;;;8.60;;
78027;SDS011;67235;45.638;11.714;2023-05-07T15:08:56;11.50;;;8.45;;
78027;SDS011;67235;45.638;11.714;2023-05-07T15:11:22;12.07;;;7.90;;
78027;SDS011;67235;45.638;11.714;2023-05-07T15:13:49;13.85;;;9.10;;
78027;SDS011;67235;45.638;11.714;2023-05-07T15:16:15;11.97;;;8.23;;
78027;SDS011;67235;45.638;11.714;2023-05-07T15:18:41;11.60;;;7.85;;
78027;SDS011;67235;45.638;11.714;2023-05-07T15:21:07;11.32;;;8.48;;
78027;SDS011;67235;45.638;11.714;2023-05-07T15:23:33;11.37;;;7.90;;
78027;SDS011;67235;45.638;11.714;2023-05-07T15:25:59;9.82;;;7.63;;
78027;SDS011;67235;45.638;11.714;2023-05-07T15:28:26;11.32;;;7.55;;
78027;SDS011;67235;45.638;11.714;2023-05-07T15:30:54;11.13;;;7.22;;